• Join FlightAware (Why Join?)
  • Login
  • US Flag 
06:02AM EDT


 

Airport Tracker/Info


-or-


 

Live Flight TrackerFlight Track Log ✈ CTL15 ✈ 14-May-2013 ✈ KBKL - KHAO

Flight Track Log - Related Links

Times and Time Zones

All times are in EDT time to prevent confusion due to time zone crossing. See the CTL15 flight status page for this flight to view local times or setup timezone preferences in your user account.

Time Position Orientation Groundspeed Altitude Reporting Facility
EDT Latitude Longitude Course Direction KTS MPH feet Rate Location/Type
08:50PM 41.5525 -81.6653 18° North 108 124 2,900  Level Cleveland Center
08:52PM 41.5756 -81.6628 North 74 85 4,600 1,440 Climbing Cleveland Center
08:53PM 41.5628 -81.6767 219° Southwest 109 125 5,900 1,260 Climbing Cleveland Center
08:54PM 41.5317 -81.6789 183° South 101 116 7,200 960 Climbing Cleveland Center
08:55PM 41.5022 -81.6950 202° Southwest 107 123 8,000 360 Climbing Cleveland Center
08:56PM 41.4683 -81.7386 224° Southwest 168 193 8,000  Level Cleveland Center
08:57PM 41.4411 -81.7714 222° Southwest 169 194 8,100  Climbing Cleveland Center
08:58PM 41.4050 -81.8233 227° Southwest 174 200 8,000 -60 Descending Cleveland Center
08:59PM 41.3733 -81.8669 226° Southwest 170 196 8,000  Level Cleveland Center
09:00PM 41.3372 -81.9133 224° Southwest 166 191 8,000  Level Cleveland Center
09:01PM 41.3033 -81.9569 224° Southwest 167 192 8,100 -60 Climbing Cleveland Center
09:02PM 41.2739 -81.9950 224° Southwest 166 191 7,900 -60 Descending Cleveland Center
09:04PM 41.2014 -82.0933 226° Southwest 165 190 8,000  Climbing Indianapolis Center
09:05PM 41.1703 -82.1392 228° Southwest 165 190 8,000 -60 Level Indianapolis Center
09:06PM 41.1378 -82.1822 225° Southwest 164 189 7,900  Descending Indianapolis Center
09:07PM 41.1053 -82.2253 225° Southwest 163 188 8,000 60 Climbing Indianapolis Center
09:08PM 41.0736 -82.2683 226° Southwest 163 188 8,100  Climbing Indianapolis Center
09:09PM 41.0400 -82.3139 226° Southwest 169 194 8,000 -60 Descending Indianapolis Center
09:10PM 41.0053 -82.3578 224° Southwest 171 197 8,000  Level Indianapolis Center
09:11PM 40.9722 -82.4019 225° Southwest 168 193 8,000  Level Indianapolis Center
09:12PM 40.9381 -82.4464 225° Southwest 170 196 8,000  Level Indianapolis Center
09:13PM 40.9039 -82.4911 225° Southwest 170 196 8,000  Level Indianapolis Center
09:14PM 40.8694 -82.5356 224° Southwest 172 198 8,000  Level Indianapolis Center
09:15PM 40.8286 -82.5897 225° Southwest 176 203 8,000  Level Indianapolis Center
09:16PM 40.7942 -82.6350 225° Southwest 174 200 8,000  Level Indianapolis Center
09:17PM 40.7606 -82.6814 226° Southwest 173 199 8,000  Level Indianapolis Center
09:18PM 40.7278 -82.7275 227° Southwest 171 197 8,000  Level Indianapolis Center
09:19PM 40.6928 -82.7703 223° Southwest 171 197 8,100 60 Climbing Indianapolis Center
09:20PM 40.6583 -82.8133 223° Southwest 169 194 8,200 -60 Climbing Indianapolis Center
09:21PM 40.6236 -82.8586 225° Southwest 173 199 8,000 -60 Descending Indianapolis Center
09:22PM 40.5903 -82.9017 224° Southwest 168 193 8,100  Climbing Indianapolis Center
09:23PM 40.5564 -82.9450 224° Southwest 168 193 8,000  Descending Indianapolis Center
09:24PM 40.5233 -82.9906 226° Southwest 169 194 8,100  Climbing Indianapolis Center
09:25PM 40.4897 -83.0367 226° Southwest 167 192 8,000 -60 Descending Indianapolis Center
09:26PM 40.4561 -83.0828 226° Southwest 172 198 8,000  Level Indianapolis Center
09:28PM 40.4228 -83.1272 225° Southwest 169 194 8,000  Level Indianapolis Center
09:29PM 40.3897 -83.1697 224° Southwest 166 191 8,000  Level Indianapolis Center
09:30PM 40.3575 -83.2128 226° Southwest 165 190 8,100  Climbing Indianapolis Center
09:31PM 40.3253 -83.2556 225° Southwest 164 189 8,000 -60 Descending Indianapolis Center
09:32PM 40.2850 -83.3061 224° Southwest 164 189 8,000  Level Indianapolis Center
09:33PM 40.2506 -83.3483 223° Southwest 167 192 8,000  Level Indianapolis Center
09:34PM 40.2203 -83.3911 227° Southwest 163 188 8,000  Level Indianapolis Center
09:35PM 40.1858 -83.4333 223° Southwest 166 191 8,000  Level Indianapolis Center
09:36PM 40.1556 -83.4792 229° Southwest 166 191 8,000 -60 Level Indianapolis Center
09:37PM 40.1228 -83.5239 226° Southwest 162 186 7,900  Descending Indianapolis Center
09:38PM 40.0903 -83.5689 227° Southwest 165 190 8,000  Climbing Indianapolis Center
09:39PM 40.0600 -83.6114 227° Southwest 163 188 8,000  Level Indianapolis Center
09:40PM 40.0275 -83.6539 225° Southwest 161 185 8,000  Level Indianapolis Center
09:41PM 39.9950 -83.6961 225° Southwest 163 188 8,000  Level Indianapolis Center
09:42PM 39.9644 -83.7411 228° Southwest 166 191 8,000  Level Indianapolis Center
09:43PM 39.9317 -83.7861 226° Southwest 162 186 8,000  Level Indianapolis Center
09:44PM 39.9033 -83.8286 229° Southwest 162 186 8,100 -60 Climbing Indianapolis Center
09:45PM 39.8706 -83.8736 227° Southwest 166 191 7,900 -60 Descending Indianapolis Center
09:46PM 39.8356 -83.9206 226° Southwest 164 189 8,000  Climbing Indianapolis Center
09:47PM 39.8028 -83.9653 226° Southwest 163 188 8,000  Level Indianapolis Center
09:48PM 39.7750 -83.9997 224° Southwest 167 192 8,000 -120 Level Indianapolis Center
09:49PM 39.7403 -84.0442 225° Southwest 167 192 7,800 -360 Descending Indianapolis Center
09:50PM 39.7031 -84.0953 227° Southwest 174 200 7,300 -600 Descending Indianapolis Center
09:51PM 39.6667 -84.1433 225° Southwest 180 207 6,500 -780 Descending Indianapolis Center
09:52PM 39.6294 -84.1906 224° Southwest 183 211 5,800 -720 Descending Indianapolis Center
09:53PM 39.5864 -84.2431 223° Southwest 186 214 5,100 -780 Descending Indianapolis Center
09:54PM 39.5475 -84.2906 223° Southwest 185 213 4,300 -660 Descending Indianapolis Center
09:55PM 39.5119 -84.3358 224° Southwest 181 208 3,800 -660 Descending Indianapolis Center
09:56PM 39.4786 -84.3831 228° Southwest 178 205 3,000 -540 Descending Indianapolis Center
09:57PM 39.4508 -84.4261 230° Southwest 178 205 2,800 -240 Descending Indianapolis Center
09:59PM 39.3957 -84.4543 218° Southwest  Level FlightAware Approximate
10:06PM 39.3500 -84.5167 229° Southwest  Level FlightAware Approximate
10:07PM 39.3638 -84.5219 229° Southwest  Level Estimated
10:08PM 39.3638 -84.5219 229° Southwest  Level Estimated
10:09PM 39.3638 -84.5219 229° Southwest  Level Estimated
10:10PM 39.3638 -84.5219 229° Southwest  Level Estimated